createdAt,value
2017-07-23T00:02:05.801Z,20.90
2017-07-23T00:04:33.323Z,20.80
2017-07-23T00:07:00.817Z,20.90
2017-07-23T00:09:28.334Z,20.90
2017-07-23T00:11:55.824Z,20.80
2017-07-23T00:14:23.327Z,20.70
2017-07-23T00:16:50.805Z,20.70
2017-07-23T00:19:18.315Z,20.60
2017-07-23T00:21:45.798Z,20.60
2017-07-23T00:24:13.290Z,20.60
2017-07-23T00:26:40.790Z,20.70
2017-07-23T00:29:08.317Z,20.60
2017-07-23T00:31:35.805Z,20.70
2017-07-23T00:34:03.273Z,20.60
2017-07-23T00:36:30.771Z,20.60
2017-07-23T00:38:58.252Z,20.60
2017-07-23T00:41:25.743Z,20.60
2017-07-23T00:43:53.219Z,20.60
2017-07-23T00:46:20.735Z,20.40
2017-07-23T00:48:48.216Z,20.40
2017-07-23T00:51:15.719Z,20.40
2017-07-23T00:53:43.195Z,20.30
2017-07-23T00:56:10.696Z,20.30
2017-07-23T00:58:38.191Z,20.30
2017-07-23T01:01:05.702Z,20.30
2017-07-23T01:03:33.952Z,20.10
2017-07-23T01:06:01.444Z,20.10
2017-07-23T01:08:28.919Z,20.20
2017-07-23T01:10:56.431Z,20.20
2017-07-23T01:13:23.919Z,20.20
2017-07-23T01:15:51.404Z,20.20
2017-07-23T01:18:18.910Z,20.20
2017-07-23T01:20:46.410Z,20.30
2017-07-23T01:23:13.907Z,20.30
2017-07-23T01:25:42.161Z,20.30
2017-07-23T01:28:09.664Z,20.20
2017-07-23T01:30:37.147Z,20.30
2017-07-23T01:33:04.647Z,20.30
2017-07-23T01:35:32.120Z,20.20
2017-07-23T01:38:00.404Z,20.20
2017-07-23T01:40:28.653Z,20.20
2017-07-23T01:42:56.159Z,20.10
2017-07-23T01:45:23.655Z,19.70
2017-07-23T01:47:51.170Z,19.40
2017-07-23T01:50:19.428Z,19.40
2017-07-23T01:52:46.936Z,19.30
2017-07-23T01:55:14.416Z,19.60
2017-07-23T01:57:41.920Z,19.70
2017-07-23T02:00:09.405Z,19.80
2017-07-23T02:02:36.920Z,19.80
2017-07-23T02:05:04.407Z,19.80
2017-07-23T02:07:32.645Z,19.90
2017-07-23T02:10:00.145Z,19.90
2017-07-23T02:12:27.636Z,19.90
2017-07-23T02:14:55.899Z,19.90
2017-07-23T02:17:24.143Z,19.90
2017-07-23T02:19:51.673Z,19.90
2017-07-23T02:22:19.154Z,19.90
2017-07-23T02:24:46.674Z,19.90
2017-07-23T02:27:14.171Z,19.80
2017-07-23T02:29:41.684Z,19.90
2017-07-23T02:32:09.946Z,20.00
2017-07-23T02:34:37.452Z,19.90
2017-07-23T02:37:04.933Z,19.90
2017-07-23T02:39:32.443Z,19.90
2017-07-23T02:42:00.711Z,19.80
2017-07-23T02:44:28.991Z,19.80
2017-07-23T02:46:56.484Z,19.80
2017-07-23T02:49:23.998Z,19.70
2017-07-23T02:51:51.499Z,19.70
2017-07-23T02:54:18.979Z,19.70
2017-07-23T02:56:46.478Z,19.70
2017-07-23T02:59:13.964Z,19.80
2017-07-23T03:01:41.472Z,19.80
2017-07-23T03:04:08.948Z,19.80
2017-07-23T03:06:36.461Z,19.70
2017-07-23T03:09:04.720Z,19.50
2017-07-23T03:11:32.983Z,19.50
2017-07-23T03:14:01.241Z,19.50
2017-07-23T03:16:29.502Z,19.60
2017-07-23T03:18:57.756Z,19.60
2017-07-23T03:21:25.254Z,19.60
2017-07-23T03:23:52.748Z,19.70
2017-07-23T03:26:21.024Z,19.70
2017-07-23T03:28:48.513Z,19.70
2017-07-23T03:31:16.013Z,19.70
2017-07-23T03:33:43.510Z,19.70
2017-07-23T03:36:11.032Z,19.60
2017-07-23T03:38:38.506Z,19.60
2017-07-23T03:41:05.988Z,19.50
2017-07-23T03:43:33.493Z,19.50
2017-07-23T03:46:00.976Z,19.30
2017-07-23T03:48:28.476Z,19.40
2017-07-23T03:50:55.952Z,19.40
2017-07-23T03:53:23.455Z,19.50
2017-07-23T03:55:50.945Z,19.50
2017-07-23T03:58:18.452Z,19.40
2017-07-23T04:00:46.705Z,19.50
2017-07-23T04:03:14.212Z,19.40
2017-07-23T04:05:41.700Z,19.50
2017-07-23T04:08:09.213Z,19.40
2017-07-23T04:10:36.700Z,19.30
2017-07-23T04:13:04.219Z,19.40
2017-07-23T04:15:31.701Z,19.40
2017-07-23T04:17:59.199Z,19.40
2017-07-23T04:20:26.688Z,19.40
2017-07-23T04:22:54.192Z,19.30
2017-07-23T04:25:21.683Z,19.30
2017-07-23T04:27:49.187Z,19.20
2017-07-23T04:30:17.468Z,19.20
2017-07-23T04:32:44.981Z,19.10
2017-07-23T04:35:12.475Z,19.10
2017-07-23T04:37:39.951Z,19.00
2017-07-23T04:40:07.456Z,19.10
2017-07-23T04:42:34.944Z,19.10
2017-07-23T04:45:03.257Z,19.10
2017-07-23T04:47:30.752Z,19.00
2017-07-23T04:49:58.244Z,19.00
2017-07-23T04:52:25.738Z,19.00
2017-07-23T04:54:53.232Z,19.10
2017-07-23T04:57:20.715Z,19.20
2017-07-23T04:59:48.220Z,19.20
2017-07-23T05:02:15.699Z,19.20
2017-07-23T05:04:43.211Z,19.20
2017-07-23T05:07:10.695Z,19.30
2017-07-23T05:09:38.968Z,19.20
2017-07-23T05:12:07.220Z,19.20
2017-07-23T05:14:35.472Z,19.20
2017-07-23T05:17:02.974Z,19.20
2017-07-23T05:19:30.460Z,19.20
2017-07-23T05:21:57.965Z,19.20
2017-07-23T05:24:25.460Z,19.20
2017-07-23T05:26:52.967Z,19.30
2017-07-23T05:29:20.451Z,19.30
2017-07-23T05:31:47.951Z,19.10
2017-07-23T05:34:15.430Z,19.10
2017-07-23T05:36:42.942Z,19.10
2017-07-23T05:39:10.414Z,19.20
2017-07-23T05:41:38.684Z,19.30
2017-07-23T05:44:06.177Z,19.30
2017-07-23T05:46:33.671Z,19.30
2017-07-23T05:49:01.144Z,19.40
2017-07-23T05:51:28.623Z,19.40
2017-07-23T05:53:56.894Z,19.50
2017-07-23T05:56:24.384Z,19.40
2017-07-23T05:58:51.887Z,19.50
2017-07-23T06:01:19.367Z,19.50
2017-07-23T06:03:46.872Z,19.50
2017-07-23T06:06:15.122Z,19.60
2017-07-23T06:08:43.396Z,19.70
2017-07-23T06:11:10.888Z,19.60
2017-07-23T06:13:38.396Z,19.70
2017-07-23T06:16:05.976Z,19.70
2017-07-23T06:18:33.479Z,19.70
2017-07-23T06:21:00.976Z,19.70
2017-07-23T06:23:28.492Z,19.70
2017-07-23T06:25:55.983Z,19.70
2017-07-23T06:28:23.475Z,19.80
2017-07-23T06:30:50.980Z,19.90
2017-07-23T06:33:18.465Z,19.90
2017-07-23T06:35:45.967Z,19.80
2017-07-23T06:38:13.464Z,19.80
2017-07-23T06:40:40.982Z,19.90
2017-07-23T06:43:08.472Z,20.00
2017-07-23T06:45:35.971Z,20.00
2017-07-23T06:48:03.461Z,20.10
2017-07-23T06:50:30.967Z,20.20
2017-07-23T06:52:58.447Z,20.30
2017-07-23T06:55:26.708Z,20.30
2017-07-23T06:57:54.952Z,20.30
2017-07-23T07:00:22.460Z,20.30
2017-07-23T07:02:49.938Z,20.40
2017-07-23T07:05:17.444Z,20.40
2017-07-23T07:07:44.936Z,20.40
2017-07-23T07:10:13.207Z,20.50
2017-07-23T07:12:41.464Z,20.60
2017-07-23T07:15:09.015Z,20.50
2017-07-23T07:17:36.566Z,20.60
2017-07-23T07:20:04.105Z,20.70
2017-07-23T07:22:31.632Z,20.80
2017-07-23T07:24:59.889Z,20.90
2017-07-23T07:27:28.294Z,21.00
2017-07-23T07:29:55.808Z,21.00
2017-07-23T07:32:23.423Z,21.00
2017-07-23T07:34:50.911Z,21.00
2017-07-23T07:37:18.487Z,21.00
2017-07-23T07:39:46.016Z,21.00
2017-07-23T07:42:13.543Z,21.00
2017-07-23T07:44:41.054Z,21.00
2017-07-23T07:47:08.599Z,21.00
2017-07-23T07:49:36.858Z,21.00
2017-07-23T07:52:05.129Z,21.00
2017-07-23T07:54:33.377Z,21.00
2017-07-23T07:57:01.049Z,20.90
2017-07-23T07:59:28.528Z,21.00
2017-07-23T08:01:56.030Z,21.00
2017-07-23T08:04:23.526Z,20.90
2017-07-23T08:06:51.030Z,20.90
2017-07-23T08:09:18.543Z,20.90
2017-07-23T08:11:46.038Z,20.80
2017-07-23T08:14:13.562Z,20.70
2017-07-23T08:16:41.052Z,20.70
2017-07-23T08:19:09.198Z,20.60
2017-07-23T08:21:36.721Z,20.50
2017-07-23T08:24:04.225Z,20.50
2017-07-23T08:26:31.844Z,20.50
2017-07-23T08:28:59.353Z,20.40
2017-07-23T08:31:26.843Z,20.30
2017-07-23T08:33:54.481Z,20.20
2017-07-23T08:36:22.014Z,20.20
2017-07-23T08:38:49.581Z,20.30
2017-07-23T08:41:17.856Z,20.20
2017-07-23T08:43:45.432Z,20.20
2017-07-23T08:46:12.998Z,20.40
2017-07-23T08:48:40.542Z,20.70
2017-07-23T08:51:08.065Z,20.90
2017-07-23T08:53:35.569Z,21.20
2017-07-23T08:56:03.088Z,21.40
2017-07-23T08:58:31.376Z,21.70
2017-07-23T09:00:58.900Z,21.60
2017-07-23T09:03:27.164Z,22.50
2017-07-23T09:05:55.452Z,22.70
2017-07-23T09:08:22.943Z,22.70
2017-07-23T09:10:50.455Z,22.60
2017-07-23T09:13:17.951Z,22.50
2017-07-23T09:15:45.460Z,22.30
2017-07-23T09:18:12.944Z,22.20
2017-07-23T09:20:40.453Z,22.40
2017-07-23T09:23:07.939Z,22.70
2017-07-23T09:25:35.464Z,22.90
2017-07-23T09:28:02.965Z,23.20
2017-07-23T09:30:30.452Z,23.20
2017-07-23T09:32:57.976Z,23.10
2017-07-23T09:35:25.477Z,23.00
2017-07-23T09:37:53.004Z,22.90
2017-07-23T09:40:20.618Z,22.60
2017-07-23T09:42:48.215Z,22.30
2017-07-23T09:45:15.712Z,22.10
2017-07-23T09:47:43.226Z,22.20
2017-07-23T09:50:10.707Z,22.70
2017-07-23T09:52:38.225Z,23.20
2017-07-23T09:55:05.711Z,23.80
2017-07-23T09:57:33.783Z,24.40
2017-07-23T10:00:01.291Z,24.20
2017-07-23T10:02:28.787Z,24.20
2017-07-23T10:04:56.285Z,24.50
2017-07-23T10:07:23.796Z,24.90
2017-07-23T10:09:51.287Z,25.20
2017-07-23T10:12:18.816Z,24.90
2017-07-23T10:14:46.299Z,24.40
2017-07-23T10:17:13.801Z,24.00
2017-07-23T10:19:41.299Z,23.60
2017-07-23T10:22:08.816Z,23.30
2017-07-23T10:24:36.305Z,22.90
2017-07-23T10:27:04.555Z,22.90
2017-07-23T10:29:32.053Z,22.90
2017-07-23T10:31:59.539Z,23.20
2017-07-23T10:34:27.798Z,23.10
2017-07-23T10:36:55.283Z,23.10
2017-07-23T10:39:22.784Z,23.00
2017-07-23T10:41:51.036Z,23.30
2017-07-23T10:44:18.536Z,23.20
2017-07-23T10:46:46.039Z,23.70
2017-07-23T10:49:14.309Z,24.70
2017-07-23T10:51:41.903Z,24.70
2017-07-23T10:54:09.407Z,24.90
2017-07-23T10:56:36.905Z,25.20
2017-07-23T10:59:04.432Z,25.20
2017-07-23T11:01:31.919Z,25.30
2017-07-23T11:04:00.184Z,25.30
2017-07-23T11:06:27.707Z,25.20
2017-07-23T11:08:55.231Z,25.50
2017-07-23T11:11:22.716Z,25.90
2017-07-23T11:13:50.196Z,26.10
2017-07-23T11:16:17.705Z,26.70
2017-07-23T11:18:45.193Z,27.10
2017-07-23T11:21:12.708Z,27.10
2017-07-23T11:23:40.194Z,27.30
2017-07-23T11:26:07.691Z,26.90
2017-07-23T11:28:35.187Z,26.50
2017-07-23T11:31:03.460Z,25.30
2017-07-23T11:33:31.720Z,24.60
2017-07-23T11:35:59.994Z,24.20
2017-07-23T11:38:27.476Z,24.10
2017-07-23T11:40:54.975Z,24.00
2017-07-23T11:43:22.452Z,23.80
2017-07-23T11:45:49.962Z,23.70
2017-07-23T11:48:17.470Z,23.60
2017-07-23T11:50:44.997Z,23.60
2017-07-23T11:53:12.483Z,23.40
2017-07-23T11:55:39.971Z,23.40
2017-07-23T11:58:07.475Z,23.20
2017-07-23T12:00:34.950Z,23.10
2017-07-23T12:03:02.452Z,23.10
2017-07-23T12:05:29.952Z,23.00
2017-07-23T12:07:57.447Z,23.10
2017-07-23T12:10:24.947Z,23.10
2017-07-23T12:12:52.451Z,23.00
2017-07-23T12:15:19.931Z,22.90
2017-07-23T12:17:47.456Z,22.70
2017-07-23T12:20:14.940Z,22.60
2017-07-23T12:22:42.463Z,22.70
2017-07-23T12:25:09.956Z,22.80
2017-07-23T12:27:37.452Z,22.80
2017-07-23T12:30:04.959Z,22.90
2017-07-23T12:32:32.471Z,22.90
2017-07-23T12:34:59.954Z,22.90
2017-07-23T12:37:27.446Z,22.90
2017-07-23T12:39:55.728Z,22.80
2017-07-23T12:42:23.221Z,22.70
2017-07-23T12:44:50.739Z,22.80
2017-07-23T12:47:18.248Z,22.80
2017-07-23T12:49:45.751Z,22.70
2017-07-23T12:52:13.234Z,22.70
2017-07-23T12:54:40.736Z,22.70
2017-07-23T12:57:08.225Z,22.70
2017-07-23T12:59:35.893Z,22.80
2017-07-23T13:02:03.362Z,22.90
2017-07-23T13:04:30.873Z,22.90
2017-07-23T13:06:58.354Z,22.80
2017-07-23T13:09:25.851Z,22.70
2017-07-23T13:11:53.347Z,22.70
2017-07-23T13:14:21.620Z,22.50
2017-07-23T13:16:49.869Z,22.10
2017-07-23T13:19:17.568Z,22.10
2017-07-23T13:21:48.930Z,22.30
2017-07-23T13:24:19.718Z,22.40
2017-07-23T13:26:50.325Z,22.50
2017-07-23T13:29:20.136Z,22.50
2017-07-23T13:31:51.641Z,22.50
2017-07-23T13:34:23.418Z,22.40
2017-07-23T13:36:50.900Z,22.40
2017-07-23T13:39:18.380Z,22.40
2017-07-23T13:41:45.889Z,22.50
2017-07-23T13:44:14.146Z,22.50
2017-07-23T13:46:42.414Z,22.50
2017-07-23T13:49:09.915Z,22.50
2017-07-23T13:51:37.465Z,22.50
2017-07-23T13:54:04.972Z,22.50
2017-07-23T13:56:32.484Z,22.50
2017-07-23T13:59:00.750Z,22.70
2017-07-23T14:01:28.290Z,22.60
2017-07-23T14:03:55.785Z,22.70
2017-07-23T14:06:23.301Z,22.70
2017-07-23T14:08:50.789Z,22.70
2017-07-23T14:11:18.291Z,22.70
2017-07-23T14:13:45.799Z,22.70
2017-07-23T14:16:13.301Z,22.70
2017-07-23T14:18:40.800Z,22.70
2017-07-23T14:21:08.340Z,22.80
2017-07-23T14:23:35.857Z,22.80
2017-07-23T14:26:04.116Z,22.80
2017-07-23T14:28:31.624Z,22.80
2017-07-23T14:30:59.110Z,22.80
2017-07-23T14:33:27.387Z,22.70
2017-07-23T14:35:54.883Z,22.70
2017-07-23T14:38:22.396Z,22.70
2017-07-23T14:40:49.884Z,22.60
2017-07-23T14:43:17.421Z,22.60
2017-07-23T14:45:44.920Z,22.60
2017-07-23T14:48:12.432Z,22.60
2017-07-23T14:50:39.916Z,22.60
2017-07-23T14:53:07.436Z,22.60
2017-07-23T14:55:34.929Z,22.60
2017-07-23T14:58:02.436Z,22.70
2017-07-23T15:00:29.923Z,22.70
2017-07-23T15:02:57.427Z,22.70
2017-07-23T15:05:24.953Z,22.70
2017-07-23T15:07:52.463Z,22.70
2017-07-23T15:10:19.948Z,22.70
2017-07-23T15:12:47.449Z,22.60
2017-07-23T15:15:15.711Z,22.60
2017-07-23T15:17:43.974Z,22.60
2017-07-23T15:20:11.453Z,22.60
2017-07-23T15:22:39.003Z,22.70
2017-07-23T15:25:06.494Z,22.60
2017-07-23T15:27:34.745Z,22.50
2017-07-23T15:30:02.250Z,22.50
2017-07-23T15:32:29.733Z,22.50
2017-07-23T15:34:58.008Z,22.50
2017-07-23T15:37:25.504Z,22.50
2017-07-23T15:39:53.004Z,22.30
2017-07-23T15:42:20.503Z,22.40
2017-07-23T15:44:48.003Z,22.40
2017-07-23T15:47:15.477Z,22.40
2017-07-23T15:49:42.980Z,22.40
2017-07-23T15:52:10.468Z,22.40
2017-07-23T15:54:37.967Z,22.40
2017-07-23T15:57:05.448Z,22.40
2017-07-23T15:59:32.948Z,22.40
2017-07-23T16:02:00.440Z,22.40
2017-07-23T16:04:27.961Z,22.40
2017-07-23T16:06:55.456Z,22.40
2017-07-23T16:09:22.939Z,22.30
2017-07-23T16:11:50.451Z,22.30
2017-07-23T16:14:17.945Z,22.20
2017-07-23T16:16:45.464Z,22.20
2017-07-23T16:19:12.957Z,22.20
2017-07-23T16:21:40.448Z,22.10
2017-07-23T16:24:08.179Z,22.20
2017-07-23T16:26:35.689Z,22.20
2017-07-23T16:29:03.176Z,22.20
2017-07-23T16:31:30.684Z,22.20
2017-07-23T16:33:58.937Z,22.10
2017-07-23T16:36:26.436Z,22.10
2017-07-23T16:38:53.915Z,22.20
2017-07-23T16:41:21.421Z,22.20
2017-07-23T16:43:48.919Z,22.20
2017-07-23T16:46:17.184Z,22.20
2017-07-23T16:48:44.665Z,22.20
2017-07-23T16:51:12.222Z,22.20
2017-07-23T16:53:39.712Z,22.10
2017-07-23T16:56:07.977Z,22.10
2017-07-23T16:58:35.492Z,22.00
2017-07-23T17:01:02.984Z,22.10
2017-07-23T17:03:30.489Z,22.20
2017-07-23T17:05:57.983Z,22.20
2017-07-23T17:08:25.487Z,22.20
2017-07-23T17:10:52.970Z,22.20
2017-07-23T17:13:20.479Z,22.20
2017-07-23T17:15:47.971Z,22.20
2017-07-23T17:18:15.473Z,22.20
2017-07-23T17:20:42.959Z,22.20
2017-07-23T17:23:10.455Z,22.20
2017-07-23T17:25:37.935Z,22.20
2017-07-23T17:28:05.439Z,22.20
2017-07-23T17:30:32.920Z,22.20
2017-07-23T17:33:00.424Z,22.20
2017-07-23T17:35:27.916Z,22.20
2017-07-23T17:37:55.436Z,22.20
2017-07-23T17:40:22.930Z,22.20
2017-07-23T17:42:50.422Z,22.20
2017-07-23T17:45:17.965Z,22.10
2017-07-23T17:47:45.451Z,22.10
2017-07-23T17:50:12.947Z,22.10
2017-07-23T17:52:40.425Z,22.00
2017-07-23T17:55:07.933Z,22.10
2017-07-23T17:57:35.420Z,22.10
2017-07-23T18:00:02.930Z,22.10
2017-07-23T18:02:30.447Z,22.00
2017-07-23T18:04:57.952Z,22.00
2017-07-23T18:07:26.248Z,21.80
2017-07-23T18:09:53.761Z,21.80
2017-07-23T18:12:22.005Z,21.70
2017-07-23T18:14:49.589Z,21.70
2017-07-23T18:17:17.080Z,21.60
2017-07-23T18:19:44.576Z,21.50
2017-07-23T18:22:12.056Z,21.50
2017-07-23T18:24:39.571Z,21.50
2017-07-23T18:27:07.056Z,21.50
2017-07-23T18:29:34.582Z,21.50
2017-07-23T18:32:02.071Z,21.50
2017-07-23T18:34:30.394Z,21.40
2017-07-23T18:36:57.897Z,21.40
2017-07-23T18:39:25.385Z,21.50
2017-07-23T18:41:52.892Z,21.40
2017-07-23T18:44:20.389Z,21.40
2017-07-23T18:46:47.900Z,21.40
2017-07-23T18:49:15.393Z,21.40
2017-07-23T18:51:42.907Z,21.40
2017-07-23T18:54:10.400Z,21.40
2017-07-23T18:56:37.927Z,21.40
2017-07-23T18:59:05.412Z,21.40
2017-07-23T19:01:32.924Z,21.30
2017-07-23T19:04:00.473Z,21.30
2017-07-23T19:06:27.982Z,21.30
2017-07-23T19:08:56.236Z,21.20
2017-07-23T19:11:24.522Z,21.20
2017-07-23T19:13:52.016Z,21.10
2017-07-23T19:16:19.523Z,21.30
2017-07-23T19:18:47.012Z,21.20
2017-07-23T19:21:14.516Z,21.20
2017-07-23T19:23:42.000Z,21.10
2017-07-23T19:26:09.528Z,21.10
2017-07-23T19:28:37.008Z,21.00
2017-07-23T19:31:04.501Z,20.70
2017-07-23T19:33:32.004Z,20.50
2017-07-23T19:35:59.496Z,20.30
2017-07-23T19:38:27.003Z,20.00
2017-07-23T19:40:54.492Z,20.00
2017-07-23T19:43:21.999Z,19.80
2017-07-23T19:45:49.488Z,20.10
2017-07-23T19:48:16.999Z,20.10
2017-07-23T19:50:44.484Z,20.20
2017-07-23T19:53:12.755Z,20.20
2017-07-23T19:55:40.239Z,20.20
2017-07-23T19:58:07.737Z,20.10
2017-07-23T20:00:35.232Z,20.20
2017-07-23T20:03:02.740Z,20.00
2017-07-23T20:05:30.253Z,19.70
2017-07-23T20:07:58.503Z,19.80
2017-07-23T20:10:26.003Z,19.70
2017-07-23T20:12:53.483Z,19.70
2017-07-23T20:15:20.984Z,19.70
2017-07-23T20:17:48.477Z,19.70
2017-07-23T20:20:15.993Z,19.80
2017-07-23T20:22:43.491Z,19.70
2017-07-23T20:25:11.016Z,19.60
2017-07-23T20:27:38.502Z,19.50
2017-07-23T20:30:06.004Z,19.40
2017-07-23T20:32:33.493Z,19.40
2017-07-23T20:35:01.003Z,19.60
2017-07-23T20:37:28.482Z,19.40
2017-07-23T20:39:55.984Z,19.40
2017-07-23T20:42:23.474Z,19.00
2017-07-23T20:44:51.012Z,18.90
2017-07-23T20:47:18.500Z,18.90
2017-07-23T20:49:46.040Z,18.60
2017-07-23T20:52:13.540Z,18.70
2017-07-23T20:54:41.012Z,18.90
2017-07-23T20:57:09.284Z,18.90
2017-07-23T20:59:37.544Z,18.80
2017-07-23T21:02:05.047Z,18.80
2017-07-23T21:04:32.545Z,18.80
2017-07-23T21:07:00.060Z,18.80
2017-07-23T21:09:27.548Z,18.70
2017-07-23T21:11:55.060Z,18.80
2017-07-23T21:14:22.544Z,18.80
2017-07-23T21:16:50.082Z,18.90
2017-07-23T21:19:17.564Z,19.00
2017-07-23T21:21:45.083Z,18.90
2017-07-23T21:24:12.577Z,19.00
2017-07-23T21:26:40.060Z,18.90
2017-07-23T21:29:07.559Z,18.70
2017-07-23T21:31:35.045Z,18.80
2017-07-23T21:34:02.557Z,18.90
2017-07-23T21:36:30.035Z,19.00
2017-07-23T21:38:57.536Z,18.90
2017-07-23T21:41:25.014Z,18.70
2017-07-23T21:43:52.514Z,18.80
2017-07-23T21:46:20.017Z,18.70
2017-07-23T21:48:47.524Z,18.90
2017-07-23T21:51:15.056Z,18.90
2017-07-23T21:53:42.556Z,18.80
2017-07-23T21:56:10.033Z,18.80
2017-07-23T21:58:37.555Z,18.70
2017-07-23T22:01:05.030Z,18.60
2017-07-23T22:03:32.526Z,18.60
2017-07-23T22:06:00.046Z,18.70
2017-07-23T22:08:27.538Z,18.50
2017-07-23T22:10:55.040Z,18.50
2017-07-23T22:13:22.533Z,18.60
2017-07-23T22:15:50.044Z,18.60
2017-07-23T22:18:18.308Z,18.40
2017-07-23T22:20:46.587Z,18.50
2017-07-23T22:23:14.087Z,18.40
2017-07-23T22:25:41.608Z,18.50
2017-07-23T22:28:09.088Z,18.50
2017-07-23T22:30:37.359Z,18.60
2017-07-23T22:33:04.841Z,18.50
2017-07-23T22:35:32.356Z,18.50
2017-07-23T22:37:59.848Z,18.50
2017-07-23T22:40:27.351Z,18.50
2017-07-23T22:42:54.845Z,18.40
2017-07-23T22:45:22.345Z,18.30
2017-07-23T22:47:49.856Z,18.50
2017-07-23T22:50:17.336Z,18.40
2017-07-23T22:52:44.838Z,18.40
2017-07-23T22:55:12.319Z,18.60
2017-07-23T22:57:39.825Z,18.50
2017-07-23T23:00:08.076Z,18.50
2017-07-23T23:02:35.589Z,18.50
2017-07-23T23:05:03.084Z,18.50
2017-07-23T23:07:30.596Z,18.50
2017-07-23T23:09:58.074Z,18.40
2017-07-23T23:12:25.583Z,18.50
2017-07-23T23:14:53.072Z,18.30
2017-07-23T23:17:20.613Z,18.30
2017-07-23T23:19:48.095Z,18.30
2017-07-23T23:22:15.593Z,18.40
2017-07-23T23:24:43.104Z,18.50
2017-07-23T23:27:11.352Z,18.50
2017-07-23T23:29:38.856Z,18.50
2017-07-23T23:32:06.345Z,18.50
2017-07-23T23:34:33.840Z,18.40
2017-07-23T23:37:01.323Z,18.50
2017-07-23T23:39:28.820Z,18.40
2017-07-23T23:41:56.319Z,18.50
2017-07-23T23:44:24.592Z,18.40
2017-07-23T23:46:52.831Z,18.20
2017-07-23T23:49:20.327Z,18.20
2017-07-23T23:51:47.824Z,18.30
2017-07-23T23:54:15.335Z,18.50
2017-07-23T23:56:42.856Z,18.50
2017-07-23T23:59:10.341Z,18.50
